createdAt,value
2023-04-28T00:02:02.176Z,8.80
2023-04-28T00:04:29.230Z,8.80
2023-04-28T00:06:56.128Z,8.80
2023-04-28T00:09:22.884Z,8.80
2023-04-28T00:11:49.774Z,8.80
2023-04-28T00:14:16.877Z,8.70
2023-04-28T00:16:44.042Z,8.70
2023-04-28T00:19:10.956Z,8.80
2023-04-28T00:21:37.706Z,8.80
2023-04-28T00:24:04.666Z,8.80
2023-04-28T00:26:31.423Z,8.80
2023-04-28T00:28:58.178Z,8.70
2023-04-28T00:31:25.096Z,8.70
2023-04-28T00:33:51.886Z,8.70
2023-04-28T00:36:18.647Z,8.70
2023-04-28T00:38:45.441Z,8.70
2023-04-28T00:41:12.691Z,8.70
2023-04-28T00:43:47.118Z,8.70
2023-04-28T00:46:22.518Z,8.70
2023-04-28T00:48:50.189Z,8.70
2023-04-28T00:51:17.408Z,8.70
2023-04-28T00:53:45.592Z,8.70
2023-04-28T00:56:12.833Z,8.70
2023-04-28T00:58:39.742Z,8.80
2023-04-28T01:01:08.981Z,9.00
2023-04-28T01:03:41.201Z,9.10
2023-04-28T01:06:09.799Z,9.30
2023-04-28T01:08:38.776Z,9.50
2023-04-28T01:11:13.856Z,9.60
2023-04-28T01:13:57.355Z,9.70
2023-04-28T01:16:26.135Z,9.80
2023-04-28T01:18:53.645Z,9.80
2023-04-28T01:21:33.820Z,9.70
2023-04-28T01:24:08.597Z,9.70
2023-04-28T01:26:35.375Z,9.70
2023-04-28T01:29:02.162Z,9.70
2023-04-28T01:31:31.000Z,9.60
2023-04-28T01:33:58.280Z,9.60
2023-04-28T01:36:28.379Z,9.70
2023-04-28T01:38:55.684Z,9.70
2023-04-28T01:41:22.584Z,9.80
2023-04-28T01:43:49.343Z,9.80
2023-04-28T01:46:16.158Z,9.80
2023-04-28T01:48:42.918Z,9.80
2023-04-28T01:51:09.830Z,9.70
2023-04-28T01:53:38.687Z,9.70
2023-04-28T01:56:05.546Z,9.70
2023-04-28T01:58:32.349Z,9.70
2023-04-28T02:00:59.226Z,9.70
2023-04-28T02:03:28.152Z,9.80
2023-04-28T02:05:55.305Z,9.80
2023-04-28T02:08:22.175Z,9.80
2023-04-28T02:10:48.996Z,9.80
2023-04-28T02:13:17.149Z,9.80
2023-04-28T02:15:44.466Z,9.80
2023-04-28T02:18:11.398Z,9.80
2023-04-28T02:20:40.788Z,9.80
2023-04-28T02:23:08.900Z,9.80
2023-04-28T02:25:35.704Z,9.70
2023-04-28T02:28:04.079Z,9.70
2023-04-28T02:30:34.515Z,9.80
2023-04-28T02:33:01.384Z,9.70
2023-04-28T02:35:28.288Z,9.70
2023-04-28T02:37:55.387Z,9.70
2023-04-28T02:40:22.172Z,9.60
2023-04-28T02:42:49.019Z,9.60
2023-04-28T02:45:15.833Z,9.60
2023-04-28T02:47:42.673Z,9.60
2023-04-28T02:50:09.844Z,9.60
2023-04-28T02:52:36.713Z,9.50
2023-04-28T02:55:04.767Z,9.50
2023-04-28T02:57:31.657Z,9.50
2023-04-28T02:59:58.503Z,9.50
2023-04-28T03:02:28.203Z,9.50
2023-04-28T03:04:55.136Z,9.50
2023-04-28T03:07:21.954Z,9.50
2023-04-28T03:09:48.826Z,9.50
2023-04-28T03:12:15.678Z,9.50
2023-04-28T03:14:42.462Z,9.40
2023-04-28T03:17:09.858Z,9.40
2023-04-28T03:19:36.824Z,9.40
2023-04-28T03:22:03.831Z,9.30
2023-04-28T03:24:31.942Z,9.30
2023-04-28T03:26:59.521Z,9.40
2023-04-28T03:29:26.529Z,9.40
2023-04-28T03:31:53.732Z,9.40
2023-04-28T03:34:20.789Z,9.30
2023-04-28T03:36:47.899Z,9.30
2023-04-28T03:39:22.892Z,9.30
2023-04-28T03:41:49.684Z,9.30
2023-04-28T03:44:39.674Z,9.30
2023-04-28T03:47:07.513Z,9.30
2023-04-28T03:49:35.463Z,9.30
2023-04-28T03:52:04.276Z,9.30
2023-04-28T03:54:31.505Z,9.30
2023-04-28T03:57:00.691Z,9.20
2023-04-28T03:59:27.716Z,9.20
2023-04-28T04:01:54.526Z,9.20
2023-04-28T04:04:21.872Z,9.10
2023-04-28T04:06:49.484Z,9.10
2023-04-28T04:09:16.675Z,9.20
2023-04-28T04:11:43.566Z,9.20
2023-04-28T04:14:10.557Z,9.10
2023-04-28T04:16:37.438Z,9.20
2023-04-28T04:19:05.302Z,9.20
2023-04-28T04:21:42.054Z,9.20
2023-04-28T04:24:08.864Z,9.20
2023-04-28T04:26:35.821Z,9.20
2023-04-28T04:29:11.586Z,9.30
2023-04-28T04:31:38.723Z,9.30
2023-04-28T04:34:05.629Z,9.30
2023-04-28T04:36:32.947Z,9.40
2023-04-28T04:39:01.040Z,9.40
2023-04-28T04:41:27.864Z,9.40
2023-04-28T04:44:10.398Z,9.40
2023-04-28T04:46:42.716Z,9.40
2023-04-28T04:49:09.569Z,9.50
2023-04-28T04:51:36.705Z,9.50
2023-04-28T04:54:04.102Z,9.50
2023-04-28T04:56:31.702Z,9.60
2023-04-28T04:58:58.502Z,9.60
2023-04-28T05:01:45.673Z,9.70
2023-04-28T05:04:12.624Z,9.60
2023-04-28T05:06:40.609Z,9.70
2023-04-28T05:09:07.384Z,9.70
2023-04-28T05:11:34.256Z,9.70
2023-04-28T05:14:01.072Z,9.70
2023-04-28T05:16:28.750Z,9.70
2023-04-28T05:19:14.241Z,9.70
2023-04-28T05:21:41.676Z,9.70
2023-04-28T05:24:08.572Z,9.70
2023-04-28T05:26:36.375Z,9.70
2023-04-28T05:29:07.049Z,9.70
2023-04-28T05:31:34.010Z,9.70
2023-04-28T05:34:00.974Z,9.70
2023-04-28T05:36:28.047Z,9.70
2023-04-28T05:38:54.857Z,9.70
2023-04-28T05:41:22.059Z,9.70
2023-04-28T05:43:51.024Z,9.80
2023-04-28T05:46:29.915Z,9.80
2023-04-28T05:48:59.303Z,9.80
2023-04-28T05:51:27.894Z,9.80
2023-04-28T05:53:54.726Z,9.90
2023-04-28T05:56:21.746Z,9.90
2023-04-28T05:58:50.572Z,9.90
2023-04-28T06:01:17.965Z,9.90
2023-04-28T06:03:45.279Z,9.90
2023-04-28T06:06:13.224Z,10.00
2023-04-28T06:08:40.405Z,10.00
2023-04-28T06:11:07.295Z,10.00
2023-04-28T06:13:34.240Z,10.10
2023-04-28T06:16:03.035Z,10.10
2023-04-28T06:18:32.468Z,10.10
2023-04-28T06:21:01.396Z,10.20
2023-04-28T06:23:28.178Z,10.20
2023-04-28T06:25:55.377Z,10.20
2023-04-28T06:28:22.215Z,10.20
2023-04-28T06:30:49.088Z,10.20
2023-04-28T06:33:15.844Z,10.10
2023-04-28T06:35:42.754Z,10.10
2023-04-28T06:38:09.542Z,10.10
2023-04-28T06:40:37.382Z,10.10
2023-04-28T06:43:06.342Z,10.20
2023-04-28T06:45:41.726Z,10.20
2023-04-28T06:48:08.761Z,10.20
2023-04-28T06:50:38.565Z,10.30
2023-04-28T06:53:07.622Z,10.30
2023-04-28T06:55:34.932Z,10.40
2023-04-28T06:58:01.949Z,10.50
2023-04-28T07:00:28.851Z,10.60
2023-04-28T07:02:55.859Z,10.70
2023-04-28T07:05:22.923Z,10.80
2023-04-28T07:07:49.742Z,11.00
2023-04-28T07:10:16.686Z,11.10
2023-04-28T07:12:43.572Z,11.30
2023-04-28T07:15:10.993Z,11.40
2023-04-28T07:17:37.999Z,11.50
2023-04-28T07:20:06.802Z,11.60
2023-04-28T07:22:33.603Z,11.70
2023-04-28T07:25:00.494Z,11.70
2023-04-28T07:27:27.322Z,11.80
2023-04-28T07:29:54.079Z,11.80
2023-04-28T07:32:21.051Z,11.90
2023-04-28T07:34:47.931Z,11.90
2023-04-28T07:37:15.035Z,12.00
2023-04-28T07:39:41.934Z,12.10
2023-04-28T07:42:08.999Z,12.10
2023-04-28T07:44:36.117Z,12.20
2023-04-28T07:47:03.512Z,12.30
2023-04-28T07:49:30.637Z,12.40
2023-04-28T07:51:57.582Z,12.50
2023-04-28T07:54:24.848Z,12.60
2023-04-28T07:56:51.925Z,12.60
2023-04-28T07:59:18.747Z,12.70
2023-04-28T08:01:45.564Z,12.70
2023-04-28T08:04:12.510Z,13.00
2023-04-28T08:06:40.225Z,13.40
2023-04-28T08:09:07.218Z,13.60
2023-04-28T08:11:34.607Z,13.70
2023-04-28T08:14:02.980Z,13.70
2023-04-28T08:16:31.172Z,13.80
2023-04-28T08:18:59.577Z,13.90
2023-04-28T08:21:27.021Z,14.10
2023-04-28T08:23:54.140Z,14.20
2023-04-28T08:26:21.287Z,14.40
2023-04-28T08:28:48.152Z,14.40
2023-04-28T08:31:14.955Z,14.40
2023-04-28T08:33:44.333Z,14.30
2023-04-28T08:36:15.045Z,14.40
2023-04-28T08:38:42.803Z,14.50
2023-04-28T08:41:09.804Z,14.60
2023-04-28T08:43:37.235Z,14.80
2023-04-28T08:46:07.890Z,14.80
2023-04-28T08:48:43.628Z,14.90
2023-04-28T08:51:16.212Z,15.00
2023-04-28T08:54:15.024Z,15.00
2023-04-28T08:56:36.129Z,15.00
2023-04-28T08:59:05.006Z,15.10
2023-04-28T09:01:32.405Z,15.30
2023-04-28T09:04:03.749Z,15.50
2023-04-28T09:06:38.708Z,15.70
2023-04-28T09:09:25.381Z,15.90
2023-04-28T09:12:00.788Z,15.90
2023-04-28T09:14:29.489Z,16.10
2023-04-28T09:16:56.712Z,16.10
2023-04-28T09:19:23.629Z,16.10
2023-04-28T09:21:53.909Z,16.10
2023-04-28T09:24:32.200Z,16.10
2023-04-28T09:27:00.691Z,16.40
2023-04-28T09:29:27.849Z,17.10
2023-04-28T09:31:55.144Z,17.50
2023-04-28T09:34:22.203Z,17.40
2023-04-28T09:36:48.968Z,17.20
2023-04-28T09:39:27.851Z,17.00
2023-04-28T09:41:54.658Z,16.90
2023-04-28T09:44:21.761Z,16.70
2023-04-28T09:46:48.549Z,16.60
2023-04-28T09:49:15.453Z,16.50
2023-04-28T09:51:42.264Z,16.30
2023-04-28T09:54:09.051Z,16.10
2023-04-28T09:56:40.873Z,15.90
2023-04-28T09:59:08.017Z,16.00
2023-04-28T10:01:40.495Z,16.00
2023-04-28T10:04:09.114Z,16.10
2023-04-28T10:06:36.799Z,16.10
2023-04-28T10:09:05.059Z,16.10
2023-04-28T10:11:33.943Z,16.10
2023-04-28T10:14:00.849Z,16.00
2023-04-28T10:16:30.494Z,16.00
2023-04-28T10:18:57.958Z,16.00
2023-04-28T10:21:25.559Z,16.00
2023-04-28T10:24:06.255Z,16.00
2023-04-28T10:27:10.081Z,16.10
2023-04-28T10:29:37.556Z,16.10
2023-04-28T10:32:16.992Z,16.20
2023-04-28T10:34:44.488Z,16.30
2023-04-28T10:37:11.328Z,16.30
2023-04-28T10:39:38.411Z,16.50
2023-04-28T10:42:05.227Z,16.70
2023-04-28T10:44:32.092Z,16.90
2023-04-28T10:47:09.938Z,16.90
2023-04-28T10:49:54.928Z,16.80
2023-04-28T10:52:48.543Z,16.70
2023-04-28T10:55:37.279Z,16.60
2023-04-28T10:58:31.745Z,16.60
2023-04-28T11:01:21.124Z,16.40
2023-04-28T11:03:51.960Z,16.40
2023-04-28T11:06:28.560Z,16.50
2023-04-28T11:08:57.535Z,16.50
2023-04-28T11:11:32.668Z,16.50
2023-04-28T11:14:20.399Z,16.70
2023-04-28T11:17:01.875Z,16.90
2023-04-28T11:19:30.738Z,17.00
2023-04-28T11:22:01.026Z,17.10
2023-04-28T11:24:29.372Z,16.90
2023-04-28T11:26:57.524Z,16.80
2023-04-28T11:29:40.171Z,16.60
2023-04-28T11:32:09.328Z,16.40
2023-04-28T11:34:37.273Z,16.10
2023-04-28T11:37:05.802Z,15.90
2023-04-28T11:39:33.866Z,15.90
2023-04-28T11:42:03.143Z,15.80
2023-04-28T11:44:31.622Z,15.70
2023-04-28T11:47:01.001Z,15.70
2023-04-28T11:49:30.609Z,15.60
2023-04-28T11:52:03.921Z,15.60
2023-04-28T11:54:30.692Z,15.50
2023-04-28T11:56:58.572Z,15.40
2023-04-28T11:59:31.639Z,15.30
2023-04-28T12:02:05.967Z,15.30
2023-04-28T12:04:38.270Z,15.30
2023-04-28T12:07:06.332Z,15.50
2023-04-28T12:09:35.186Z,15.60
2023-04-28T12:12:04.739Z,15.70
2023-04-28T12:14:55.665Z,15.70
2023-04-28T12:17:31.215Z,15.70
2023-04-28T12:20:00.158Z,15.60
2023-04-28T12:22:27.356Z,15.60
2023-04-28T12:25:11.323Z,15.50
2023-04-28T12:27:40.303Z,15.50
2023-04-28T12:30:26.358Z,15.40
2023-04-28T12:32:54.108Z,15.40
2023-04-28T12:35:25.296Z,15.40
2023-04-28T12:37:53.594Z,15.40
2023-04-28T12:40:20.583Z,15.50
2023-04-28T12:42:47.510Z,15.60
2023-04-28T12:45:16.137Z,15.70
2023-04-28T12:47:43.417Z,15.80
2023-04-28T12:50:10.410Z,15.90
2023-04-28T12:52:37.463Z,16.00
2023-04-28T12:55:04.922Z,16.00
2023-04-28T12:57:31.908Z,16.10
2023-04-28T12:59:58.710Z,16.10
2023-04-28T13:02:25.817Z,16.00
2023-04-28T13:04:52.954Z,16.00
2023-04-28T13:07:19.989Z,16.10
2023-04-28T13:09:47.678Z,16.10
2023-04-28T13:12:15.568Z,16.20
2023-04-28T13:14:42.456Z,16.40
2023-04-28T13:17:10.347Z,16.50
2023-04-28T13:19:37.892Z,16.70
2023-04-28T13:22:06.613Z,16.90
2023-04-28T13:24:34.451Z,17.20
2023-04-28T13:27:02.763Z,17.40
2023-04-28T13:29:29.907Z,17.80
2023-04-28T13:31:56.790Z,17.90
2023-04-28T13:34:23.582Z,18.00
2023-04-28T13:36:53.751Z,18.00
2023-04-28T13:39:21.899Z,17.90
2023-04-28T13:41:51.485Z,17.90
2023-04-28T13:44:18.243Z,18.00
2023-04-28T13:46:45.937Z,18.00
2023-04-28T13:49:13.203Z,18.20
2023-04-28T13:51:40.017Z,18.30
2023-04-28T13:54:11.358Z,18.50
2023-04-28T13:56:38.475Z,18.80
2023-04-28T13:59:05.344Z,19.20
2023-04-28T14:01:32.165Z,19.60
2023-04-28T14:03:59.176Z,19.80
2023-04-28T14:06:27.289Z,20.00
2023-04-28T14:08:54.150Z,20.10
2023-04-28T14:11:20.987Z,20.00
2023-04-28T14:13:47.759Z,19.80
2023-04-28T14:16:14.594Z,19.80
2023-04-28T14:18:41.618Z,20.00
2023-04-28T14:21:08.804Z,20.40
2023-04-28T14:23:35.773Z,20.60
2023-04-28T14:26:02.696Z,20.90
2023-04-28T14:28:29.668Z,20.80
2023-04-28T14:30:56.868Z,20.80
2023-04-28T14:33:24.487Z,20.60
2023-04-28T14:35:51.360Z,20.50
2023-04-28T14:38:18.523Z,20.30
2023-04-28T14:40:45.332Z,20.10
2023-04-28T14:43:13.738Z,20.00
2023-04-28T14:45:40.738Z,20.10
2023-04-28T14:48:10.313Z,20.20
2023-04-28T14:50:37.478Z,20.30
2023-04-28T14:53:07.192Z,20.30
2023-04-28T14:55:34.416Z,20.60
2023-04-28T14:58:01.733Z,21.00
2023-04-28T15:00:29.260Z,20.80
2023-04-28T15:02:56.260Z,20.80
2023-04-28T15:05:23.190Z,20.90
2023-04-28T15:07:50.080Z,20.90
2023-04-28T15:10:17.473Z,20.90
2023-04-28T15:12:44.402Z,20.90
2023-04-28T15:15:11.767Z,20.90
2023-04-28T15:17:38.895Z,20.80
2023-04-28T15:20:06.358Z,20.70
2023-04-28T15:22:33.348Z,20.60
2023-04-28T15:25:00.402Z,20.40
2023-04-28T15:27:27.234Z,20.40
2023-04-28T15:29:54.122Z,20.40
2023-04-28T15:32:21.436Z,20.30
2023-04-28T15:34:48.982Z,20.40
2023-04-28T15:37:41.482Z,20.30
2023-04-28T15:40:10.697Z,20.10
2023-04-28T15:42:38.279Z,20.10
2023-04-28T15:45:05.980Z,19.90
2023-04-28T15:47:32.957Z,19.80
2023-04-28T15:50:00.047Z,19.60
2023-04-28T15:52:27.857Z,19.40
2023-04-28T15:54:55.950Z,19.20
2023-04-28T15:57:23.219Z,19.10
2023-04-28T15:59:51.781Z,18.90
2023-04-28T16:02:19.298Z,18.80
2023-04-28T16:04:46.997Z,18.70
2023-04-28T16:07:14.116Z,18.50
2023-04-28T16:09:41.115Z,18.50
2023-04-28T16:12:08.610Z,18.40
2023-04-28T16:14:36.335Z,18.30
2023-04-28T16:17:03.435Z,18.20
2023-04-28T16:19:30.269Z,18.10
2023-04-28T16:21:57.203Z,18.00
2023-04-28T16:24:24.197Z,17.80
2023-04-28T16:26:52.317Z,17.60
2023-04-28T16:29:19.166Z,17.30
2023-04-28T16:31:46.048Z,17.20
2023-04-28T16:34:12.897Z,17.00
2023-04-28T16:36:40.165Z,16.90
2023-04-28T16:39:07.021Z,16.70
2023-04-28T16:41:34.039Z,16.60
2023-04-28T16:44:00.839Z,16.50
2023-04-28T16:46:27.706Z,16.50
2023-04-28T16:48:54.534Z,16.40
2023-04-28T16:51:22.037Z,16.30
2023-04-28T16:53:48.966Z,16.30
2023-04-28T16:56:15.927Z,16.30
2023-04-28T16:58:42.848Z,16.40
2023-04-28T17:01:09.907Z,16.50
2023-04-28T17:03:41.379Z,16.60
2023-04-28T17:06:09.014Z,16.70
2023-04-28T17:08:35.888Z,16.70
2023-04-28T17:11:04.797Z,16.50
2023-04-28T17:13:32.880Z,16.50
2023-04-28T17:16:00.124Z,16.50
2023-04-28T17:18:26.923Z,16.50
2023-04-28T17:20:54.086Z,16.40
2023-04-28T17:23:20.892Z,16.40
2023-04-28T17:25:47.736Z,16.30
2023-04-28T17:28:14.513Z,16.30
2023-04-28T17:30:43.850Z,16.30
2023-04-28T17:33:13.815Z,16.20
2023-04-28T17:35:40.653Z,16.20
2023-04-28T17:38:07.463Z,16.10
2023-04-28T17:40:34.286Z,16.10
2023-04-28T17:43:01.520Z,16.10
2023-04-28T17:45:28.353Z,16.00
2023-04-28T17:47:57.660Z,16.00
2023-04-28T17:50:24.692Z,15.90
2023-04-28T17:52:51.770Z,15.90
2023-04-28T17:55:18.849Z,15.90
2023-04-28T17:57:45.858Z,15.80
2023-04-28T18:00:13.447Z,15.70
2023-04-28T18:02:40.708Z,15.50
2023-04-28T18:05:07.597Z,15.40
2023-04-28T18:07:34.597Z,15.30
2023-04-28T18:10:01.674Z,15.30
2023-04-28T18:12:29.469Z,15.20
2023-04-28T18:14:57.723Z,15.30
2023-04-28T18:17:25.988Z,15.20
2023-04-28T18:19:56.438Z,15.20
2023-04-28T18:22:23.270Z,15.20
2023-04-28T18:24:50.493Z,15.20
2023-04-28T18:27:17.504Z,15.30
2023-04-28T18:29:44.919Z,15.20
2023-04-28T18:32:14.487Z,15.20
2023-04-28T18:34:41.970Z,15.20
2023-04-28T18:37:09.397Z,15.20
2023-04-28T18:39:36.567Z,15.10
2023-04-28T18:42:04.220Z,15.20
2023-04-28T18:44:31.165Z,15.10
2023-04-28T18:46:58.467Z,15.10
2023-04-28T18:49:25.660Z,15.00
2023-04-28T18:51:52.466Z,15.00
2023-04-28T18:54:19.706Z,14.90
2023-04-28T18:56:47.922Z,14.90
2023-04-28T18:59:14.776Z,14.80
2023-04-28T19:01:41.869Z,14.80
2023-04-28T19:04:09.175Z,14.70
2023-04-28T19:06:36.294Z,14.60
2023-04-28T19:09:03.343Z,14.60
2023-04-28T19:11:30.499Z,14.60
2023-04-28T19:13:58.002Z,14.50
2023-04-28T19:16:25.014Z,14.40
2023-04-28T19:18:52.030Z,14.30
2023-04-28T19:21:18.843Z,14.20
2023-04-28T19:23:46.099Z,14.10
2023-04-28T19:26:13.258Z,14.10
2023-04-28T19:28:40.030Z,14.00
2023-04-28T19:31:08.090Z,14.00
2023-04-28T19:33:34.890Z,13.90
2023-04-28T19:36:02.235Z,13.90
2023-04-28T19:38:28.961Z,13.90
2023-04-28T19:41:00.999Z,13.90
2023-04-28T19:43:27.945Z,13.90
2023-04-28T19:45:54.908Z,13.80
2023-04-28T19:48:21.803Z,13.80
2023-04-28T19:50:48.743Z,13.80
2023-04-28T19:53:15.507Z,13.80
2023-04-28T19:55:42.308Z,13.80
2023-04-28T19:58:10.558Z,13.80
2023-04-28T20:00:37.401Z,13.80
2023-04-28T20:03:04.389Z,13.80
2023-04-28T20:05:31.337Z,13.70
2023-04-28T20:07:58.254Z,13.70
2023-04-28T20:10:26.084Z,13.70
2023-04-28T20:12:54.214Z,13.70
2023-04-28T20:15:21.068Z,13.70
2023-04-28T20:17:48.101Z,13.70
2023-04-28T20:20:14.964Z,13.70
2023-04-28T20:22:41.809Z,13.60
2023-04-28T20:25:10.617Z,13.60
2023-04-28T20:27:37.786Z,13.50
2023-04-28T20:30:05.231Z,13.50
2023-04-28T20:32:33.440Z,13.50
2023-04-28T20:35:02.679Z,13.50
2023-04-28T20:37:31.927Z,13.50
2023-04-28T20:39:58.621Z,13.50
2023-04-28T20:42:25.720Z,13.50
2023-04-28T20:44:52.558Z,13.40
2023-04-28T20:47:19.472Z,13.50
2023-04-28T20:49:47.217Z,13.50
2023-04-28T20:52:14.030Z,13.40
2023-04-28T20:54:43.508Z,13.40
2023-04-28T20:57:10.268Z,13.40
2023-04-28T20:59:37.049Z,13.50
2023-04-28T21:02:04.111Z,13.50
2023-04-28T21:04:31.141Z,13.50
2023-04-28T21:06:58.073Z,13.50
2023-04-28T21:09:25.239Z,13.50
2023-04-28T21:11:52.333Z,13.50
2023-04-28T21:14:19.182Z,13.50
2023-04-28T21:16:46.191Z,13.50
2023-04-28T21:19:13.032Z,13.50
2023-04-28T21:21:39.851Z,13.50
2023-04-28T21:24:08.148Z,13.50
2023-04-28T21:26:35.894Z,13.50
2023-04-28T21:29:03.000Z,13.40
2023-04-28T21:31:30.633Z,13.40
2023-04-28T21:33:57.654Z,13.40
2023-04-28T21:36:24.590Z,13.30
2023-04-28T21:38:51.741Z,13.30
2023-04-28T21:41:18.560Z,13.30
2023-04-28T21:43:45.800Z,13.30
2023-04-28T21:46:13.065Z,13.30
2023-04-28T21:48:39.998Z,13.30
2023-04-28T21:51:06.890Z,13.20
2023-04-28T21:53:33.734Z,13.20
2023-04-28T21:56:00.602Z,13.20
2023-04-28T21:58:27.578Z,13.10
2023-04-28T22:00:55.046Z,13.20
2023-04-28T22:03:22.261Z,13.10
2023-04-28T22:05:49.352Z,13.10
2023-04-28T22:08:16.898Z,13.10
2023-04-28T22:10:45.451Z,13.20
2023-04-28T22:13:12.794Z,13.20
2023-04-28T22:15:39.756Z,13.10
2023-04-28T22:18:07.872Z,13.20
2023-04-28T22:20:34.774Z,13.20
2023-04-28T22:23:01.582Z,13.20
2023-04-28T22:25:28.330Z,13.20
2023-04-28T22:27:55.137Z,13.20
2023-04-28T22:30:24.300Z,13.20
2023-04-28T22:32:52.606Z,13.20
2023-04-28T22:35:19.513Z,13.20
2023-04-28T22:37:46.337Z,13.20
2023-04-28T22:40:13.221Z,13.20
2023-04-28T22:42:41.396Z,13.10
2023-04-28T22:45:09.933Z,13.10
2023-04-28T22:47:38.238Z,13.10
2023-04-28T22:50:06.309Z,13.00
2023-04-28T22:52:33.718Z,13.00
2023-04-28T22:55:00.797Z,13.00
2023-04-28T22:57:27.683Z,12.90
2023-04-28T22:59:54.644Z,12.90
2023-04-28T23:02:22.597Z,12.90
2023-04-28T23:04:49.901Z,12.90
2023-04-28T23:07:16.887Z,12.80
2023-04-28T23:09:43.652Z,12.80
2023-04-28T23:12:10.544Z,12.70
2023-04-28T23:14:38.028Z,12.70
2023-04-28T23:17:04.968Z,12.70
2023-04-28T23:19:31.956Z,12.70
2023-04-28T23:21:58.728Z,12.60
2023-04-28T23:24:27.039Z,12.60
2023-04-28T23:26:53.872Z,12.50
2023-04-28T23:29:20.648Z,12.50
2023-04-28T23:31:52.126Z,12.40
2023-04-28T23:34:19.198Z,12.40
2023-04-28T23:36:46.004Z,12.40
2023-04-28T23:39:13.217Z,12.30
2023-04-28T23:41:39.989Z,12.30
2023-04-28T23:44:07.103Z,12.30
2023-04-28T23:46:33.994Z,12.30
2023-04-28T23:49:00.739Z,12.30
2023-04-28T23:51:27.514Z,12.20
2023-04-28T23:53:54.311Z,12.20
2023-04-28T23:56:21.073Z,12.30
2023-04-28T23:58:47.805Z,12.20
